Time;durP1;ratioP1;P1;durP2;ratioP2;P2;SDS_P1;SDS_P2;PMS_P1;PMS_P2;Temp;Humidity;BMP_temperature;BMP_pressure;BME280_temperature;BME280_humidity;BME280_pressure;Samples;Min_cycle;Max_cycle;Signal;HPM_P1;HPM_P2
2022/08/09 00:00:54;;;;;;;;;;;20.80;63.40;;;;;;5040987;28;20391;-67
2022/08/09 00:03:20;;;;;;;;;;;20.80;63.40;;;;;;5040649;28;20003;-67
2022/08/09 00:05:46;;;;;;;;;;;20.80;63.50;;;;;;5038599;28;20356;-67
2022/08/09 00:08:11;;;;;;;;;;;20.80;63.60;;;;;;5037041;28;19939;-67
2022/08/09 00:10:37;;;;;;;;;;;20.70;63.60;;;;;;5040860;28;20318;-67
2022/08/09 00:13:04;;;;;;;;;;;20.70;63.80;;;;;;5041247;28;20627;-67
2022/08/09 00:15:29;;;;;;;;;;;20.70;63.90;;;;;;5028934;28;19958;-67
2022/08/09 00:17:55;;;;;;;;;;;20.70;64.00;;;;;;5022676;28;19913;-67
2022/08/09 00:20:20;;;;;;;;;;;20.60;64.10;;;;;;5022080;28;19977;-67
2022/08/09 00:22:46;;;;;;;;;;;20.60;64.00;;;;;;5022073;28;19913;-67
2022/08/09 00:25:11;;;;;;;;;;;20.60;64.20;;;;;;5021955;28;20003;-67
2022/08/09 00:27:37;;;;;;;;;;;20.60;64.20;;;;;;5025514;28;19919;-67
2022/08/09 00:30:02;;;;;;;;;;;20.60;64.60;;;;;;5022034;28;19917;-67
2022/08/09 00:32:28;;;;;;;;;;;20.50;64.60;;;;;;5022127;28;19917;-67
2022/08/09 00:34:54;;;;;;;;;;;20.50;64.40;;;;;;5021698;28;19981;-67
2022/08/09 00:37:19;;;;;;;;;;;20.50;64.40;;;;;;5023228;28;20304;-67
2022/08/09 00:39:45;;;;;;;;;;;20.50;64.60;;;;;;5022091;28;20012;-67
2022/08/09 00:42:10;;;;;;;;;;;20.40;64.60;;;;;;5040790;28;19915;-67
2022/08/09 00:44:36;;;;;;;;;;;20.40;64.80;;;;;;5035128;28;20317;-67
2022/08/09 00:47:01;;;;;;;;;;;20.40;65.00;;;;;;5025890;28;19954;-67
2022/08/09 00:49:27;;;;;;;;;;;20.40;65.00;;;;;;5033188;28;20047;-67
2022/08/09 00:51:55;;;;;;;;;;;20.30;65.00;;;;;;5035417;28;20526;-67
2022/08/09 00:54:22;;;;;;;;;;;20.30;65.40;;;;;;5039663;28;20287;-67
2022/08/09 00:56:48;;;;;;;;;;;20.30;65.00;;;;;;5038906;28;19991;-67
2022/08/09 00:59:13;;;;;;;;;;;20.20;65.70;;;;;;5034134;28;19909;-67
2022/08/09 01:01:40;;;;;;;;;;;20.20;65.70;;;;;;5020033;28;19913;-67
2022/08/09 01:04:10;;;;;;;;;;;20.20;65.30;;;;;;5041551;28;19913;-67
2022/08/09 01:06:43;;;;;;;;;;;20.20;65.90;;;;;;5039926;28;19916;-67
2022/08/09 01:09:29;;;;;;;;;;;20.10;65.90;;;;;;5024470;28;19913;-67
2022/08/09 01:11:55;;;;;;;;;;;20.10;66.00;;;;;;5025012;28;19966;-67
2022/08/09 01:14:20;;;;;;;;;;;20.10;66.20;;;;;;5024612;28;20291;-67
2022/08/09 01:16:49;;;;;;;;;;;20.00;66.40;;;;;;5024922;28;19917;-67
2022/08/09 01:19:33;;;;;;;;;;;20.00;66.40;;;;;;5006732;28;19960;-67
2022/08/09 01:22:17;;;;;;;;;;;20.00;66.40;;;;;;5024569;28;20492;-67
2022/08/09 01:24:49;;;;;;;;;;;20.00;66.60;;;;;;5007370;28;20555;-67
2022/08/09 01:27:15;;;;;;;;;;;20.00;66.50;;;;;;5036840;28;19921;-67
2022/08/09 01:29:43;;;;;;;;;;;19.90;66.60;;;;;;5038876;28;20630;-67
2022/08/09 01:32:10;;;;;;;;;;;19.90;66.80;;;;;;5033211;28;19978;-67
2022/08/09 01:34:37;;;;;;;;;;;19.90;66.90;;;;;;5029240;28;20538;-67
2022/08/09 01:37:05;;;;;;;;;;;19.90;66.70;;;;;;5024223;28;19966;-67
2022/08/09 01:39:34;;;;;;;;;;;19.90;67.00;;;;;;5041371;28;19913;-67
2022/08/09 01:42:01;;;;;;;;;;;19.80;66.90;;;;;;5023924;28;19985;-67
2022/08/09 01:44:26;;;;;;;;;;;19.80;67.20;;;;;;5038679;28;19913;-67
2022/08/09 01:46:52;;;;;;;;;;;19.80;67.10;;;;;;5005987;28;19977;-67
2022/08/09 01:49:18;;;;;;;;;;;19.80;67.20;;;;;;5023746;28;20015;-67
2022/08/09 01:51:45;;;;;;;;;;;19.70;67.30;;;;;;5029647;28;19920;-67
2022/08/09 01:54:12;;;;;;;;;;;19.70;67.40;;;;;;5024345;28;19913;-67
2022/08/09 01:56:39;;;;;;;;;;;19.70;67.40;;;;;;5023631;28;19945;-67
2022/08/09 01:59:07;;;;;;;;;;;19.70;67.40;;;;;;5024019;28;19913;-67
2022/08/09 02:01:34;;;;;;;;;;;19.70;67.50;;;;;;5027696;28;19924;-67
2022/08/09 02:04:01;;;;;;;;;;;19.70;67.50;;;;;;5023673;28;20046;-67
2022/08/09 02:09:12;;;;;;;;;;;19.60;67.50;;;;;;5042790;28;19969;-67
2022/08/09 02:11:38;;;;;;;;;;;19.60;67.50;;;;;;5028625;28;19956;-67
2022/08/09 02:14:04;;;;;;;;;;;19.60;67.50;;;;;;5006354;28;19944;-67
2022/08/09 02:16:34;;;;;;;;;;;19.60;67.60;;;;;;5024087;28;19966;-67
2022/08/09 02:19:00;;;;;;;;;;;19.60;67.80;;;;;;5023746;28;19917;-67
2022/08/09 02:21:27;;;;;;;;;;;19.50;67.70;;;;;;5024775;28;20520;-67
2022/08/09 02:23:54;;;;;;;;;;;19.50;67.80;;;;;;5022516;28;20269;-67
2022/08/09 02:26:21;;;;;;;;;;;19.50;67.80;;;;;;5028741;28;19921;-67
2022/08/09 02:28:50;;;;;;;;;;;19.50;67.90;;;;;;5023469;28;19913;-67
2022/08/09 02:31:20;;;;;;;;;;;19.50;67.70;;;;;;5011389;28;19952;-67
2022/08/09 02:33:47;;;;;;;;;;;19.50;68.00;;;;;;5024149;28;19952;-67
2022/08/09 02:36:17;;;;;;;;;;;19.40;68.00;;;;;;5023949;28;20440;-67
2022/08/09 02:38:53;;;;;;;;;;;19.40;67.90;;;;;;5018594;28;19913;-67
2022/08/09 02:41:31;;;;;;;;;;;19.40;68.00;;;;;;5005462;28;20285;-67
2022/08/09 02:43:59;;;;;;;;;;;19.40;68.10;;;;;;5023224;28;20863;-67
2022/08/09 02:46:26;;;;;;;;;;;19.30;68.10;;;;;;5022127;28;19928;-67
2022/08/09 02:48:53;;;;;;;;;;;19.30;68.30;;;;;;5025968;28;19998;-67
2022/08/09 02:51:20;;;;;;;;;;;19.30;68.30;;;;;;5023079;28;19921;-67
2022/08/09 02:53:48;;;;;;;;;;;19.30;68.40;;;;;;5023274;28;19909;-67
2022/08/09 02:56:14;;;;;;;;;;;19.30;68.30;;;;;;5023489;28;19913;-67
2022/08/09 02:58:41;;;;;;;;;;;19.30;68.40;;;;;;5033303;28;19920;-67
2022/08/09 03:01:07;;;;;;;;;;;19.20;68.50;;;;;;5041259;28;20405;-67
2022/08/09 03:03:34;;;;;;;;;;;19.20;68.40;;;;;;5040280;28;20542;-67
2022/08/09 03:06:00;;;;;;;;;;;19.20;68.50;;;;;;5038878;28;20086;-67
2022/08/09 03:08:26;;;;;;;;;;;19.20;68.60;;;;;;5022724;28;19917;-67
2022/08/09 03:10:53;;;;;;;;;;;19.20;68.30;;;;;;5018970;28;19916;-67
2022/08/09 03:13:20;;;;;;;;;;;19.10;68.60;;;;;;5021946;28;20227;-67
2022/08/09 03:15:45;;;;;;;;;;;19.10;68.50;;;;;;5020662;28;19924;-67
2022/08/09 03:18:12;;;;;;;;;;;19.10;68.60;;;;;;5021562;28;19913;-67
2022/08/09 03:20:38;;;;;;;;;;;19.10;68.70;;;;;;5021385;28;19959;-67
2022/08/09 03:23:04;;;;;;;;;;;19.10;68.90;;;;;;5021121;28;20544;-67
2022/08/09 03:25:30;;;;;;;;;;;19.10;68.70;;;;;;5017207;28;19917;-67
2022/08/09 03:27:56;;;;;;;;;;;19.10;69.00;;;;;;5025021;28;19916;-67
2022/08/09 03:30:22;;;;;;;;;;;19.00;69.50;;;;;;5021715;28;19940;-67
2022/08/09 03:32:48;;;;;;;;;;;19.00;69.00;;;;;;5020771;28;19921;-67
2022/08/09 03:35:14;;;;;;;;;;;19.00;69.00;;;;;;5021581;28;19920;-67
2022/08/09 03:37:39;;;;;;;;;;;19.00;69.10;;;;;;5023327;28;19914;-67
2022/08/09 03:40:06;;;;;;;;;;;18.90;69.00;;;;;;5020271;28;19914;-68
2022/08/09 03:42:32;;;;;;;;;;;18.90;69.00;;;;;;5003570;28;20551;-67
2022/08/09 03:44:57;;;;;;;;;;;18.90;69.10;;;;;;5022714;28;19928;-67
2022/08/09 03:47:23;;;;;;;;;;;18.90;69.20;;;;;;5018629;28;19946;-67
2022/08/09 03:49:49;;;;;;;;;;;18.90;69.20;;;;;;5007674;28;19913;-67
2022/08/09 03:52:16;;;;;;;;;;;18.90;69.40;;;;;;5021955;28;19913;-67
2022/08/09 03:54:43;;;;;;;;;;;18.90;69.40;;;;;;5021943;28;19959;-67
2022/08/09 03:57:10;;;;;;;;;;;18.90;69.20;;;;;;5023875;28;19970;-67
2022/08/09 03:59:35;;;;;;;;;;;18.90;69.50;;;;;;5021607;28;19920;-67
2022/08/09 04:02:02;;;;;;;;;;;18.80;69.40;;;;;;5022454;28;19925;-67
2022/08/09 04:04:28;;;;;;;;;;;18.80;69.60;;;;;;5021715;28;19913;-67
2022/08/09 04:06:54;;;;;;;;;;;18.80;69.70;;;;;;5032646;28;19965;-67
2022/08/09 04:09:20;;;;;;;;;;;18.80;69.80;;;;;;5021164;28;19921;-67
2022/08/09 04:11:54;;;;;;;;;;;18.80;69.80;;;;;;5021304;28;20747;-67
2022/08/09 04:14:21;;;;;;;;;;;18.80;69.70;;;;;;5021086;28;20003;-67
2022/08/09 04:16:46;;;;;;;;;;;18.70;69.90;;;;;;5022649;28;20549;-67
2022/08/09 04:19:15;;;;;;;;;;;18.70;69.80;;;;;;5021672;28;19923;-67
2022/08/09 04:21:40;;;;;;;;;;;18.70;69.80;;;;;;5021019;28;19914;-67
2022/08/09 04:24:06;;;;;;;;;;;18.70;69.90;;;;;;5021259;28;19920;-68
2022/08/09 04:26:32;;;;;;;;;;;18.70;70.00;;;;;;5020522;28;19924;-67
2022/08/09 04:28:57;;;;;;;;;;;18.60;69.90;;;;;;5022426;28;19921;-67
2022/08/09 04:31:23;;;;;;;;;;;18.60;70.00;;;;;;5021083;28;19924;-67
2022/08/09 04:33:49;;;;;;;;;;;18.70;70.30;;;;;;5020670;28;19921;-67
2022/08/09 04:36:16;;;;;;;;;;;18.60;70.20;;;;;;5021793;28;19975;-67
2022/08/09 04:38:41;;;;;;;;;;;18.70;70.20;;;;;;5026653;28;19997;-67
2022/08/09 04:41:07;;;;;;;;;;;18.60;70.10;;;;;;5044019;28;19925;-67
2022/08/09 04:43:32;;;;;;;;;;;18.60;70.20;;;;;;5043506;28;20312;-67
2022/08/09 04:45:59;;;;;;;;;;;18.60;70.40;;;;;;5028212;28;19990;-67
2022/08/09 04:48:25;;;;;;;;;;;18.60;70.30;;;;;;5030694;28;19923;-67
2022/08/09 04:50:51;;;;;;;;;;;18.60;70.20;;;;;;5031644;28;19917;-67
2022/08/09 04:53:16;;;;;;;;;;;18.60;70.50;;;;;;5025328;28;19920;-67
2022/08/09 04:55:42;;;;;;;;;;;18.60;70.50;;;;;;5025434;28;19913;-67
2022/08/09 04:58:08;;;;;;;;;;;18.60;70.50;;;;;;5026007;28;19917;-67
2022/08/09 05:00:33;;;;;;;;;;;18.50;70.40;;;;;;5039456;28;19924;-67
2022/08/09 05:03:00;;;;;;;;;;;18.50;70.40;;;;;;5043441;28;20349;-67
2022/08/09 05:05:26;;;;;;;;;;;18.50;70.70;;;;;;5041392;28;19940;-67
2022/08/09 05:07:51;;;;;;;;;;;18.50;70.60;;;;;;5035994;28;20534;-67
2022/08/09 05:10:17;;;;;;;;;;;18.50;70.60;;;;;;5025608;28;19913;-67
2022/08/09 05:12:42;;;;;;;;;;;18.50;70.60;;;;;;5025162;28;19920;-67
2022/08/09 05:15:08;;;;;;;;;;;18.50;70.50;;;;;;5025154;28;20571;-67
2022/08/09 05:17:33;;;;;;;;;;;18.50;70.70;;;;;;5024861;28;19914;-67
2022/08/09 05:19:59;;;;;;;;;;;18.50;70.70;;;;;;5024984;28;19920;-67
2022/08/09 05:22:24;;;;;;;;;;;18.50;70.70;;;;;;5025161;28;19920;-67
2022/08/09 05:24:50;;;;;;;;;;;18.50;70.80;;;;;;5025344;28;19977;-67
2022/08/09 05:27:15;;;;;;;;;;;18.50;70.90;;;;;;5029217;28;19928;-67
2022/08/09 05:29:41;;;;;;;;;;;18.50;71.00;;;;;;5025229;28;20297;-67
2022/08/09 05:32:06;;;;;;;;;;;18.50;70.90;;;;;;5025396;28;19913;-67
2022/08/09 05:34:32;;;;;;;;;;;18.50;70.70;;;;;;5044051;28;20036;-67
2022/08/09 05:37:02;;;;;;;;;;;18.50;70.90;;;;;;5041981;28;19993;-67
2022/08/09 05:39:27;;;;;;;;;;;18.50;70.90;;;;;;5042696;28;19921;-67
2022/08/09 05:41:53;;;;;;;;;;;18.50;70.70;;;;;;5042663;28;19912;-67
2022/08/09 05:44:18;;;;;;;;;;;18.40;70.30;;;;;;5040204;28;19916;-67
2022/08/09 05:46:44;;;;;;;;;;;18.40;70.50;;;;;;5024106;28;20278;-67
2022/08/09 05:49:09;;;;;;;;;;;18.40;70.40;;;;;;5025326;28;20005;-67
2022/08/09 05:51:35;;;;;;;;;;;18.40;70.40;;;;;;5024583;28;19913;-67
2022/08/09 05:54:00;;;;;;;;;;;18.40;70.50;;;;;;5028443;28;20593;-67
2022/08/09 05:56:27;;;;;;;;;;;18.40;70.60;;;;;;5042673;28;19909;-67
2022/08/09 05:58:56;;;;;;;;;;;18.40;70.60;;;;;;5027365;28;19921;-67
2022/08/09 06:01:23;;;;;;;;;;;18.40;70.60;;;;;;5040728;28;19916;-67
2022/08/09 06:03:48;;;;;;;;;;;18.40;70.70;;;;;;5042842;28;20003;-67
2022/08/09 06:06:15;;;;;;;;;;;18.40;70.60;;;;;;5040480;28;20089;-67
2022/08/09 06:08:40;;;;;;;;;;;18.40;70.60;;;;;;5033261;28;20429;-67
2022/08/09 06:11:06;;;;;;;;;;;18.40;70.60;;;;;;5024162;28;19958;-67
2022/08/09 06:13:32;;;;;;;;;;;18.40;70.70;;;;;;5023885;28;19912;-67
2022/08/09 06:15:57;;;;;;;;;;;18.40;70.60;;;;;;5023948;28;19966;-67
2022/08/09 06:18:23;;;;;;;;;;;18.40;70.70;;;;;;5027536;28;19917;-67
2022/08/09 06:20:49;;;;;;;;;;;18.40;70.60;;;;;;5037677;28;19924;-67
2022/08/09 06:23:14;;;;;;;;;;;18.50;70.70;;;;;;5029440;28;19920;-68
2022/08/09 06:25:40;;;;;;;;;;;18.50;70.70;;;;;;5005297;28;20000;-67
2022/08/09 06:28:06;;;;;;;;;;;18.50;70.60;;;;;;5025044;28;20658;-67
2022/08/09 06:30:32;;;;;;;;;;;18.50;70.60;;;;;;5023801;28;19913;-67
2022/08/09 06:32:57;;;;;;;;;;;18.50;70.70;;;;;;5023553;28;19989;-67
2022/08/09 06:35:23;;;;;;;;;;;18.50;70.60;;;;;;5023905;28;20013;-67
2022/08/09 06:37:49;;;;;;;;;;;18.50;70.60;;;;;;5025523;28;19961;-67
2022/08/09 06:40:14;;;;;;;;;;;18.50;70.60;;;;;;5042040;28;19920;-67
2022/08/09 06:42:40;;;;;;;;;;;18.50;70.60;;;;;;5042243;28;19932;-67
2022/08/09 06:45:06;;;;;;;;;;;18.60;70.50;;;;;;5011444;28;20384;-67
2022/08/09 06:47:31;;;;;;;;;;;18.50;70.60;;;;;;5023207;28;19924;-67
2022/08/09 06:49:57;;;;;;;;;;;18.60;70.50;;;;;;5023119;28;20012;-67
2022/08/09 06:52:22;;;;;;;;;;;18.60;70.50;;;;;;5023443;28;20420;-67
2022/08/09 06:54:48;;;;;;;;;;;18.60;70.50;;;;;;5028395;28;19945;-67
2022/08/09 06:57:13;;;;;;;;;;;18.60;70.40;;;;;;5032896;28;19925;-67
2022/08/09 06:59:40;;;;;;;;;;;18.60;70.40;;;;;;5025916;28;19913;-67
2022/08/09 07:02:05;;;;;;;;;;;18.70;70.50;;;;;;5022692;28;20468;-67
2022/08/09 07:04:31;;;;;;;;;;;18.70;70.30;;;;;;5026586;28;19917;-67
2022/08/09 07:06:56;;;;;;;;;;;18.60;70.50;;;;;;5038097;28;19928;-67
2022/08/09 07:09:22;;;;;;;;;;;18.70;70.40;;;;;;5041448;28;19920;-67
2022/08/09 07:11:47;;;;;;;;;;;18.70;70.50;;;;;;5041290;28;20690;-67
2022/08/09 07:14:16;;;;;;;;;;;18.70;70.40;;;;;;5038245;28;19918;-67
2022/08/09 07:16:45;;;;;;;;;;;18.70;70.30;;;;;;5022746;28;19913;-67
2022/08/09 07:19:14;;;;;;;;;;;18.70;70.30;;;;;;5022794;28;19916;-67
2022/08/09 07:21:41;;;;;;;;;;;18.70;70.30;;;;;;5022922;28;20032;-67
2022/08/09 07:24:06;;;;;;;;;;;18.70;70.30;;;;;;5025176;28;19916;-67
2022/08/09 07:26:33;;;;;;;;;;;18.70;70.20;;;;;;5023441;28;19921;-67
2022/08/09 07:28:58;;;;;;;;;;;18.80;70.30;;;;;;5005902;28;19913;-67
2022/08/09 07:31:24;;;;;;;;;;;18.80;70.10;;;;;;5023293;28;20044;-67
2022/08/09 07:33:49;;;;;;;;;;;18.80;70.20;;;;;;5023406;28;19913;-67
2022/08/09 07:36:15;;;;;;;;;;;18.80;70.00;;;;;;5009081;28;19940;-67
2022/08/09 07:38:41;;;;;;;;;;;18.80;70.10;;;;;;5023066;28;19932;-67
2022/08/09 07:41:06;;;;;;;;;;;18.90;70.40;;;;;;5022961;28;19909;-67
2022/08/09 07:43:32;;;;;;;;;;;18.90;70.00;;;;;;5022693;28;19919;-67
2022/08/09 07:45:57;;;;;;;;;;;18.90;69.70;;;;;;5023351;28;19967;-67
2022/08/09 07:48:23;;;;;;;;;;;18.90;69.60;;;;;;5023473;28;19913;-67
2022/08/09 07:50:48;;;;;;;;;;;18.90;69.60;;;;;;5023706;28;20385;-67
2022/08/09 07:53:14;;;;;;;;;;;19.00;69.60;;;;;;5022997;28;19956;-67
2022/08/09 07:55:40;;;;;;;;;;;19.00;69.60;;;;;;5023377;28;20365;-67
2022/08/09 07:58:05;;;;;;;;;;;19.00;69.50;;;;;;5036335;28;19932;-67
2022/08/09 08:00:31;;;;;;;;;;;19.00;69.50;;;;;;5022376;28;20015;-67
2022/08/09 08:02:57;;;;;;;;;;;19.00;69.50;;;;;;5022407;28;20636;-67
2022/08/09 08:05:22;;;;;;;;;;;19.00;70.00;;;;;;5027661;28;19921;-67
2022/08/09 08:07:48;;;;;;;;;;;19.10;69.40;;;;;;5022027;28;19936;-67
2022/08/09 08:10:14;;;;;;;;;;;19.10;69.50;;;;;;5022375;28;19909;-67
2022/08/09 08:12:41;;;;;;;;;;;19.10;69.40;;;;;;5022481;28;19913;-67
2022/08/09 08:15:07;;;;;;;;;;;19.10;69.30;;;;;;5022669;28;20018;-67
2022/08/09 08:17:32;;;;;;;;;;;19.20;69.30;;;;;;5004907;28;19998;-67
2022/08/09 08:19:58;;;;;;;;;;;19.20;69.30;;;;;;5022873;28;19921;-67
2022/08/09 08:22:23;;;;;;;;;;;19.20;69.20;;;;;;5022409;28;19985;-67
2022/08/09 08:24:54;;;;;;;;;;;19.20;69.10;;;;;;5024890;28;19919;-67
2022/08/09 08:27:20;;;;;;;;;;;19.30;69.20;;;;;;5021538;28;19917;-67
2022/08/09 08:29:45;;;;;;;;;;;19.30;69.00;;;;;;5022247;28;20427;-67
2022/08/09 08:32:11;;;;;;;;;;;19.30;69.10;;;;;;5022145;28;19945;-67
2022/08/09 08:34:36;;;;;;;;;;;19.30;69.60;;;;;;5024076;28;20024;-67
2022/08/09 08:37:02;;;;;;;;;;;19.40;69.10;;;;;;5022814;28;19937;-67
2022/08/09 08:39:28;;;;;;;;;;;19.40;69.10;;;;;;5018102;28;19913;-67
2022/08/09 08:41:54;;;;;;;;;;;19.40;69.00;;;;;;5021842;28;20434;-67
2022/08/09 08:44:20;;;;;;;;;;;19.40;69.00;;;;;;5023728;28;20013;-67
2022/08/09 08:46:46;;;;;;;;;;;19.40;69.10;;;;;;5022205;28;19920;-67
2022/08/09 08:49:12;;;;;;;;;;;19.50;69.40;;;;;;5021688;28;20634;-67
2022/08/09 08:51:38;;;;;;;;;;;19.50;68.80;;;;;;5021751;28;20359;-67
2022/08/09 08:54:06;;;;;;;;;;;19.60;68.80;;;;;;5022015;28;19914;-67
2022/08/09 08:56:38;;;;;;;;;;;19.60;68.60;;;;;;5020441;28;19925;-67
2022/08/09 08:59:08;;;;;;;;;;;19.60;68.40;;;;;;5022899;28;19910;-67
2022/08/09 09:01:37;;;;;;;;;;;19.60;68.30;;;;;;5022121;28;19917;-67
2022/08/09 09:04:03;;;;;;;;;;;19.70;68.30;;;;;;5021606;28;19913;-67
2022/08/09 09:06:34;;;;;;;;;;;19.70;68.20;;;;;;5032596;28;19921;-67
2022/08/09 09:09:01;;;;;;;;;;;19.70;68.10;;;;;;5039756;28;20739;-67
2022/08/09 09:11:27;;;;;;;;;;;19.80;68.30;;;;;;5036351;28;20608;-67
2022/08/09 09:13:54;;;;;;;;;;;19.80;68.00;;;;;;5022041;28;19956;-67
2022/08/09 09:16:20;;;;;;;;;;;19.80;67.80;;;;;;5021751;28;20565;-67
2022/08/09 09:18:45;;;;;;;;;;;19.90;67.70;;;;;;5021872;28;20008;-67
2022/08/09 09:21:11;;;;;;;;;;;19.90;67.70;;;;;;5023709;28;20353;-67
2022/08/09 09:23:43;;;;;;;;;;;20.00;68.00;;;;;;5023415;28;19914;-67
2022/08/09 09:26:10;;;;;;;;;;;20.00;67.90;;;;;;5024309;28;19981;-67
2022/08/09 09:28:36;;;;;;;;;;;20.00;67.90;;;;;;5024805;28;19962;-67
2022/08/09 09:31:04;;;;;;;;;;;20.10;67.50;;;;;;5025152;28;19920;-67
2022/08/09 09:33:34;;;;;;;;;;;20.20;67.30;;;;;;5026646;28;19943;-67
2022/08/09 09:36:04;;;;;;;;;;;20.20;67.20;;;;;;5024955;28;20601;-67
2022/08/09 09:38:41;;;;;;;;;;;20.30;67.20;;;;;;5024788;28;19917;-67
2022/08/09 09:41:07;;;;;;;;;;;20.30;67.00;;;;;;5042683;28;19909;-67
2022/08/09 09:43:32;;;;;;;;;;;20.30;66.80;;;;;;5025909;28;19913;-67
2022/08/09 09:46:01;;;;;;;;;;;20.40;66.80;;;;;;5024703;28;20035;-67
2022/08/09 09:48:28;;;;;;;;;;;20.40;67.10;;;;;;5024355;28;19920;-67
2022/08/09 09:50:54;;;;;;;;;;;20.50;66.70;;;;;;5032722;28;19920;-67
2022/08/09 09:53:21;;;;;;;;;;;20.50;66.50;;;;;;5024557;28;19912;-67
2022/08/09 09:55:54;;;;;;;;;;;20.60;66.60;;;;;;5007281;28;19917;-67
2022/08/09 09:58:19;;;;;;;;;;;20.70;66.40;;;;;;5024096;28;19920;-67
2022/08/09 10:00:52;;;;;;;;;;;20.70;66.30;;;;;;5023561;28;19913;-67
2022/08/09 10:03:35;;;;;;;;;;;20.80;66.10;;;;;;5024051;28;19924;-67
2022/08/09 10:06:01;;;;;;;;;;;20.80;66.10;;;;;;5030839;28;20012;-67
2022/08/09 10:08:26;;;;;;;;;;;20.80;66.10;;;;;;5023591;28;20020;-67
2022/08/09 10:10:52;;;;;;;;;;;20.90;65.80;;;;;;5042038;28;19912;-67
2022/08/09 10:13:18;;;;;;;;;;;21.00;65.90;;;;;;5028866;28;19914;-67
2022/08/09 10:15:50;;;;;;;;;;;21.00;65.70;;;;;;5023756;28;19924;-67
2022/08/09 10:18:16;;;;;;;;;;;21.10;65.70;;;;;;5023913;28;20483;-67
2022/08/09 10:20:41;;;;;;;;;;;21.10;65.90;;;;;;5023916;28;19913;-67
2022/08/09 10:23:14;;;;;;;;;;;21.20;65.70;;;;;;5028863;28;19953;-67
2022/08/09 10:25:40;;;;;;;;;;;21.20;65.70;;;;;;5023798;28;19924;-67
2022/08/09 10:28:06;;;;;;;;;;;21.30;65.70;;;;;;5023262;28;19910;-67
2022/08/09 10:30:32;;;;;;;;;;;21.40;65.70;;;;;;5005978;28;20350;-67
2022/08/09 10:32:58;;;;;;;;;;;21.40;65.70;;;;;;5028773;28;19916;-67
2022/08/09 10:35:24;;;;;;;;;;;21.50;65.80;;;;;;5023549;28;20322;-67
2022/08/09 10:37:49;;;;;;;;;;;21.60;65.70;;;;;;5041396;28;19913;-67
2022/08/09 10:40:15;;;;;;;;;;;21.60;66.20;;;;;;5041530;28;20011;-67
2022/08/09 10:42:40;;;;;;;;;;;21.70;65.60;;;;;;5029734;28;19974;-67
2022/08/09 10:45:07;;;;;;;;;;;21.80;65.70;;;;;;5025649;28;19921;-67
2022/08/09 10:47:38;;;;;;;;;;;21.90;65.70;;;;;;5023018;28;19993;-67
2022/08/09 10:50:10;;;;;;;;;;;22.00;65.70;;;;;;5034340;28;19912;-67
2022/08/09 10:52:41;;;;;;;;;;;22.10;65.60;;;;;;5033501;28;19971;-67
2022/08/09 10:55:23;;;;;;;;;;;22.10;65.90;;;;;;5022491;28;19913;-67
2022/08/09 10:57:49;;;;;;;;;;;22.30;65.70;;;;;;5018174;28;20382;-67
2022/08/09 11:00:29;;;;;;;;;;;22.30;65.80;;;;;;5023043;28;19993;-67
2022/08/09 11:02:55;;;;;;;;;;;22.50;65.80;;;;;;5027165;28;20369;-67
2022/08/09 11:05:21;;;;;;;;;;;22.60;65.80;;;;;;5025841;28;19912;-67
2022/08/09 11:07:50;;;;;;;;;;;22.70;65.80;;;;;;5041316;28;19917;-67
2022/08/09 11:10:35;;;;;;;;;;;22.80;65.70;;;;;;5041430;28;19913;-67
2022/08/09 11:13:14;;;;;;;;;;;22.90;65.50;;;;;;5029263;28;19913;-67
2022/08/09 11:15:40;;;;;;;;;;;23.10;65.50;;;;;;5017366;28;19909;-67
2022/08/09 11:18:05;;;;;;;;;;;23.20;65.50;;;;;;5022507;28;19913;-67
2022/08/09 11:20:57;;;;;;;;;;;23.30;65.40;;;;;;5023206;28;19909;-66
2022/08/09 11:23:23;;;;;;;;;;;23.40;65.40;;;;;;5020592;28;20055;-67
2022/08/09 11:25:49;;;;;;;;;;;23.60;65.20;;;;;;5023198;28;19968;-67
2022/08/09 11:28:26;;;;;;;;;;;23.70;65.20;;;;;;5023087;28;19955;-67
2022/08/09 11:30:52;;;;;;;;;;;23.70;65.10;;;;;;5022911;28;19913;-67
2022/08/09 11:33:20;;;;;;;;;;;23.90;64.80;;;;;;5038660;28;19931;-67
2022/08/09 11:35:55;;;;;;;;;;;24.00;64.70;;;;;;5041397;28;19956;-66
2022/08/09 11:38:26;;;;;;;;;;;24.10;65.40;;;;;;5040460;28;20490;-66
2022/08/09 11:40:52;;;;;;;;;;;24.20;64.40;;;;;;5040711;28;20019;-67
2022/08/09 11:43:24;;;;;;;;;;;24.30;64.20;;;;;;5029454;28;20028;-67
2022/08/09 11:45:56;;;;;;;;;;;24.40;64.20;;;;;;5023145;28;20029;-66
2022/08/09 11:48:29;;;;;;;;;;;24.50;64.40;;;;;;5021611;28;19935;-66
2022/08/09 11:50:57;;;;;;;;;;;24.60;64.50;;;;;;5022016;28;19913;-66
2022/08/09 11:53:23;;;;;;;;;;;24.70;64.40;;;;;;5023920;28;19940;-67
2022/08/09 11:55:50;;;;;;;;;;;24.70;64.40;;;;;;5022530;28;20441;-67
2022/08/09 11:58:15;;;;;;;;;;;24.80;64.40;;;;;;5022511;28;20023;-66
2022/08/09 12:00:47;;;;;;;;;;;24.90;64.30;;;;;;5024782;28;20048;-66
2022/08/09 12:03:16;;;;;;;;;;;25.00;64.20;;;;;;5023839;28;19924;-67
2022/08/09 12:05:42;;;;;;;;;;;25.10;64.10;;;;;;5021820;28;20678;-66
2022/08/09 12:08:08;;;;;;;;;;;25.20;64.10;;;;;;5023584;28;19952;-67
2022/08/09 12:10:35;;;;;;;;;;;25.20;64.10;;;;;;5021773;28;19961;-67
2022/08/09 12:13:00;;;;;;;;;;;25.30;64.30;;;;;;5019428;28;20004;-66
2022/08/09 12:15:26;;;;;;;;;;;25.30;64.30;;;;;;5021370;28;20721;-66
2022/08/09 12:17:52;;;;;;;;;;;25.40;64.20;;;;;;5022182;28;19920;-66
2022/08/09 12:20:18;;;;;;;;;;;25.50;64.20;;;;;;5022222;28;19913;-66
2022/08/09 12:22:44;;;;;;;;;;;25.60;64.30;;;;;;5021882;28;20012;-66
2022/08/09 12:25:16;;;;;;;;;;;25.70;64.20;;;;;;5021677;28;19913;-66
2022/08/09 12:27:43;;;;;;;;;;;25.70;63.20;;;;;;5022608;28;20586;-66
2022/08/09 12:30:08;;;;;;;;;;;25.80;64.10;;;;;;5037441;28;19984;-66
2022/08/09 12:32:34;;;;;;;;;;;25.90;64.00;;;;;;5004305;28;20004;-66
2022/08/09 12:35:01;;;;;;;;;;;25.90;63.90;;;;;;5021133;28;19968;-66
2022/08/09 12:37:34;;;;;;;;;;;25.90;63.80;;;;;;5016441;28;20008;-66
2022/08/09 12:40:00;;;;;;;;;;;26.00;63.90;;;;;;5002574;28;20003;-66
2022/08/09 12:42:26;;;;;;;;;;;26.10;64.00;;;;;;5034195;28;20351;-67
2022/08/09 12:44:52;;;;;;;;;;;26.10;64.00;;;;;;5027202;28;19929;-66
2022/08/09 12:47:18;;;;;;;;;;;26.20;63.90;;;;;;5027854;28;19921;-66
2022/08/09 12:50:15;;;;;;;;;;;26.30;63.90;;;;;;5016183;28;19913;-66
2022/08/09 12:52:39;;;;;;;;;;;26.30;63.80;;;;;;5021468;28;20023;-66
2022/08/09 12:55:08;;;;;;;;;;;26.40;63.90;;;;;;5031847;28;19930;-66
2022/08/09 12:57:35;;;;;;;;;;;26.50;64.00;;;;;;5023754;28;19916;-66
2022/08/09 13:00:20;;;;;;;;;;;26.50;63.90;;;;;;5022785;28;19924;-67
2022/08/09 13:02:50;;;;;;;;;;;26.50;63.60;;;;;;5024838;28;19952;-66
2022/08/09 13:05:16;;;;;;;;;;;26.60;63.70;;;;;;5026155;28;20358;-66
2022/08/09 13:07:41;;;;;;;;;;;26.70;63.70;;;;;;5026494;28;19917;-66
2022/08/09 13:10:07;;;;;;;;;;;26.80;63.60;;;;;;5024573;28;20019;-66
2022/08/09 13:12:32;;;;;;;;;;;26.80;63.60;;;;;;5024204;28;19913;-66
2022/08/09 13:15:07;;;;;;;;;;;26.80;63.60;;;;;;5024533;28;19913;-66
2022/08/09 13:17:33;;;;;;;;;;;26.90;63.60;;;;;;5024666;28;20292;-66
2022/08/09 13:19:59;;;;;;;;;;;27.00;63.40;;;;;;5025350;28;19921;-66
2022/08/09 13:22:25;;;;;;;;;;;27.00;63.40;;;;;;5025944;28;19913;-66
2022/08/09 13:24:53;;;;;;;;;;;27.10;63.50;;;;;;5039580;28;19921;-66
2022/08/09 13:27:22;;;;;;;;;;;27.20;63.50;;;;;;5039603;28;20644;-66
2022/08/09 13:29:56;;;;;;;;;;;27.20;63.30;;;;;;5025928;28;19917;-66
2022/08/09 13:32:22;;;;;;;;;;;27.20;63.20;;;;;;4995340;28;19924;-66
2022/08/09 13:34:48;;;;;;;;;;;27.30;63.30;;;;;;5040922;28;20510;-66
2022/08/09 13:37:14;;;;;;;;;;;27.40;63.20;;;;;;5032672;28;19943;-66
2022/08/09 13:39:39;;;;;;;;;;;27.40;63.10;;;;;;5040152;28;19953;-66
2022/08/09 13:42:09;;;;;;;;;;;27.50;63.10;;;;;;5041910;28;20643;-66
2022/08/09 13:44:35;;;;;;;;;;;27.50;62.90;;;;;;5026034;28;19924;-66
2022/08/09 13:47:01;;;;;;;;;;;27.60;63.00;;;;;;5010452;28;19921;-66
2022/08/09 13:49:26;;;;;;;;;;;27.60;62.80;;;;;;5023347;28;20200;-66
2022/08/09 13:51:52;;;;;;;;;;;27.60;62.70;;;;;;5038824;28;19917;-66
2022/08/09 13:54:17;;;;;;;;;;;27.70;62.70;;;;;;5038719;28;19917;-66
2022/08/09 13:56:43;;;;;;;;;;;27.70;62.60;;;;;;5035774;28;19917;-67
2022/08/09 13:59:08;;;;;;;;;;;27.80;62.70;;;;;;5025485;28;19921;-66
2022/08/09 14:01:34;;;;;;;;;;;27.90;62.70;;;;;;5016311;28;19920;-67
2022/08/09 14:04:00;;;;;;;;;;;27.90;62.60;;;;;;5035395;28;19928;-66
2022/08/09 14:06:25;;;;;;;;;;;28.00;62.40;;;;;;5028964;28;19913;-66
2022/08/09 14:08:51;;;;;;;;;;;28.00;62.40;;;;;;5023410;28;19956;-66
2022/08/09 14:11:16;;;;;;;;;;;28.00;62.40;;;;;;5023638;28;19913;-66
2022/08/09 14:13:42;;;;;;;;;;;28.10;62.30;;;;;;5023920;28;19917;-66
2022/08/09 14:16:11;;;;;;;;;;;28.10;62.30;;;;;;5023099;28;19921;-66
2022/08/09 14:18:37;;;;;;;;;;;28.20;62.20;;;;;;5034254;28;20364;-66